Time;durP1;ratioP1;P1;durP2;ratioP2;P2;SDS_P1;SDS_P2;PMS_P1;PMS_P2;Temp;Humidity;BMP_temperature;BMP_pressure;BME280_temperature;BME280_humidity;BME280_pressure;Samples;Min_cycle;Max_cycle;Signal;HPM_P1;HPM_P2
2022/05/13 00:02:03;;;;;;;;;1.00;1.00;;;;;;;;4990765;28;45542;-76
2022/05/13 00:04:30;;;;;;;;;4.00;0.67;;;;;;;;4986314;28;49883;-77
2022/05/13 00:06:55;;;;;;;;;1.00;1.00;;;;;;;;4986997;28;45414;-77
2022/05/13 00:09:21;;;;;;;;;1.00;1.00;;;;;;;;4991808;28;45341;-76
2022/05/13 00:11:47;;;;;;;;;1.33;0.00;;;;;;;;4994747;28;49141;-77
2022/05/13 00:14:12;;;;;;;;;0.00;0.00;;;;;;;;4984853;28;46354;-76
2022/05/13 00:16:37;;;;;;;;;1.33;0.67;;;;;;;;4994516;28;45489;-77
2022/05/13 00:19:04;;;;;;;;;1.00;1.00;;;;;;;;4994595;28;45280;-76
2022/05/13 00:21:29;;;;;;;;;1.00;1.00;;;;;;;;4997576;28;45459;-76
2022/05/13 00:23:54;;;;;;;;;2.00;1.00;;;;;;;;4994545;28;45788;-76
2022/05/13 00:26:19;;;;;;;;;0.33;0.33;;;;;;;;5001338;28;45507;-76
2022/05/13 00:28:44;;;;;;;;;1.00;1.00;;;;;;;;4993776;28;45254;-76
2022/05/13 00:31:12;;;;;;;;;1.00;1.00;;;;;;;;4988149;28;45403;-77
2022/05/13 00:33:37;;;;;;;;;0.00;0.00;;;;;;;;4983517;28;47214;-77
2022/05/13 00:36:02;;;;;;;;;2.00;0.00;;;;;;;;4994525;28;45436;-76
2022/05/13 00:38:27;;;;;;;;;0.33;0.33;;;;;;;;5005380;28;45459;-76
2022/05/13 00:40:53;;;;;;;;;1.67;1.00;;;;;;;;4997822;28;45603;-77
2022/05/13 00:43:38;;;;;;;;;0.00;0.00;;;;;;;;4992370;28;46785;-77
2022/05/13 00:46:03;;;;;;;;;2.00;0.33;;;;;;;;5003158;28;45345;-77
2022/05/13 00:48:29;;;;;;;;;0.33;0.33;;;;;;;;4997223;28;45365;-77
2022/05/13 00:50:54;;;;;;;;;0.67;0.67;;;;;;;;4997255;28;45347;-76
2022/05/13 00:53:19;;;;;;;;;1.00;1.00;;;;;;;;4983035;28;46095;-76
2022/05/13 00:55:45;;;;;;;;;0.00;0.00;;;;;;;;4996136;28;45506;-76
2022/05/13 00:58:15;;;;;;;;;1.00;1.00;;;;;;;;4991555;28;45534;-77
2022/05/13 01:00:40;;;;;;;;;0.00;0.00;;;;;;;;4990356;28;45549;-76
2022/05/13 01:03:06;;;;;;;;;0.67;0.67;;;;;;;;4987940;28;46134;-76
2022/05/13 01:05:31;;;;;;;;;2.33;1.00;;;;;;;;4995778;28;45700;-77
2022/05/13 01:08:00;;;;;;;;;1.67;1.00;;;;;;;;4991103;28;45373;-76
2022/05/13 01:10:26;;;;;;;;;0.00;0.00;;;;;;;;4988883;28;45437;-77
2022/05/13 01:12:55;;;;;;;;;0.00;0.00;;;;;;;;4994311;28;46021;-77
2022/05/13 01:15:23;;;;;;;;;1.00;1.00;;;;;;;;4996705;28;45479;-76
2022/05/13 01:18:09;;;;;;;;;0.00;0.00;;;;;;;;4984498;28;45427;-77
2022/05/13 01:20:48;;;;;;;;;2.33;1.33;;;;;;;;4994426;28;45539;-77
2022/05/13 01:23:19;;;;;;;;;3.00;0.00;;;;;;;;4982172;28;46986;-77
2022/05/13 01:25:49;;;;;;;;;2.67;0.00;;;;;;;;4991816;28;45424;-76
2022/05/13 01:28:18;;;;;;;;;0.00;0.00;;;;;;;;4990315;28;45271;-76
2022/05/13 01:30:46;;;;;;;;;1.00;0.00;;;;;;;;4987280;28;45555;-76
2022/05/13 01:33:12;;;;;;;;;0.00;0.00;;;;;;;;5004023;28;48047;-76
2022/05/13 01:35:46;;;;;;;;;1.00;1.00;;;;;;;;4996474;28;45365;-76
2022/05/13 01:38:12;;;;;;;;;1.00;1.00;;;;;;;;4987105;28;45526;-76
2022/05/13 01:40:38;;;;;;;;;0.00;0.00;;;;;;;;4996361;28;45479;-76
2022/05/13 01:43:03;;;;;;;;;2.00;2.00;;;;;;;;4998536;28;45551;-76
2022/05/13 01:45:29;;;;;;;;;0.33;0.33;;;;;;;;4996273;28;45373;-76
2022/05/13 01:47:54;;;;;;;;;0.00;0.00;;;;;;;;4986344;28;45320;-78
2022/05/13 01:50:22;;;;;;;;;0.25;0.25;;;;;;;;4997165;28;45549;-76
2022/05/13 01:52:47;;;;;;;;;1.00;0.75;;;;;;;;4985435;28;46292;-77
2022/05/13 01:55:12;;;;;;;;;1.00;1.00;;;;;;;;4990323;28;45403;-76
2022/05/13 01:57:38;;;;;;;;;0.00;0.00;;;;;;;;4994978;28;45349;-77
2022/05/13 02:00:03;;;;;;;;;0.00;0.00;;;;;;;;4995918;28;45551;-75
2022/05/13 02:02:28;;;;;;;;;0.00;0.00;;;;;;;;4981047;28;46880;-77
2022/05/13 02:04:53;;;;;;;;;0.00;0.00;;;;;;;;4996933;28;45455;-77
2022/05/13 02:07:18;;;;;;;;;2.00;1.00;;;;;;;;4988977;28;45472;-77
2022/05/13 02:09:44;;;;;;;;;0.00;0.00;;;;;;;;4993772;28;50928;-77
2022/05/13 02:12:09;;;;;;;;;0.00;0.00;;;;;;;;4996225;28;45915;-77
2022/05/13 02:14:34;;;;;;;;;1.00;1.00;;;;;;;;4980249;28;45338;-77
2022/05/13 02:17:00;;;;;;;;;0.00;0.00;;;;;;;;4994344;28;45376;-78
2022/05/13 02:19:25;;;;;;;;;0.33;0.33;;;;;;;;4991156;28;45267;-76
2022/05/13 02:21:51;;;;;;;;;0.00;0.00;;;;;;;;4992844;28;45322;-77
2022/05/13 02:24:16;;;;;;;;;0.67;0.67;;;;;;;;4983508;28;46287;-77
2022/05/13 02:26:41;;;;;;;;;2.67;1.00;;;;;;;;4980132;28;45508;-77
2022/05/13 02:29:06;;;;;;;;;0.00;0.00;;;;;;;;5004112;28;45352;-77
2022/05/13 02:31:32;;;;;;;;;1.00;1.00;;;;;;;;4998234;28;45562;-77
2022/05/13 02:33:58;;;;;;;;;1.00;1.00;;;;;;;;4990921;28;45478;-78
2022/05/13 02:36:23;;;;;;;;;1.00;1.00;;;;;;;;4996155;28;45342;-77
2022/05/13 02:38:48;;;;;;;;;0.00;0.00;;;;;;;;4995498;28;45550;-77
2022/05/13 02:41:14;;;;;;;;;0.00;0.00;;;;;;;;4982222;28;45484;-77
2022/05/13 02:43:39;;;;;;;;;0.00;0.00;;;;;;;;4985434;28;45638;-77
2022/05/13 02:46:04;;;;;;;;;0.00;0.00;;;;;;;;4984687;28;45546;-77
2022/05/13 02:48:30;;;;;;;;;0.25;0.00;;;;;;;;4995815;28;45456;-77
2022/05/13 02:50:55;;;;;;;;;0.00;0.00;;;;;;;;4995942;28;46098;-78
2022/05/13 02:53:20;;;;;;;;;1.00;1.00;;;;;;;;4996371;28;45668;-76
2022/05/13 02:55:46;;;;;;;;;0.67;0.67;;;;;;;;4995501;28;45440;-76
2022/05/13 02:58:11;;;;;;;;;0.33;0.33;;;;;;;;4991614;28;45417;-77
2022/05/13 03:00:36;;;;;;;;;0.00;0.00;;;;;;;;4990537;28;46228;-76
2022/05/13 03:03:02;;;;;;;;;1.00;0.00;;;;;;;;4995651;28;45353;-76
2022/05/13 03:05:27;;;;;;;;;0.00;0.00;;;;;;;;4980335;28;45495;-76
2022/05/13 03:07:53;;;;;;;;;1.00;0.00;;;;;;;;4985841;28;45581;-76
2022/05/13 03:10:18;;;;;;;;;0.00;0.00;;;;;;;;4990887;28;46109;-77
2022/05/13 03:12:43;;;;;;;;;0.33;0.33;;;;;;;;4991354;28;45371;-77
2022/05/13 03:15:10;;;;;;;;;1.00;1.00;;;;;;;;5007386;28;45806;-78
2022/05/13 03:17:36;;;;;;;;;1.00;0.00;;;;;;;;4993033;28;45328;-77
2022/05/13 03:20:01;;;;;;;;;0.00;0.00;;;;;;;;4995889;28;45484;-77
2022/05/13 03:22:26;;;;;;;;;1.00;1.00;;;;;;;;4993742;28;45393;-77
2022/05/13 03:24:51;;;;;;;;;0.00;0.00;;;;;;;;4989434;28;45457;-78
2022/05/13 03:27:17;;;;;;;;;0.00;0.00;;;;;;;;4994858;28;45507;-75
2022/05/13 03:29:42;;;;;;;;;1.00;1.00;;;;;;;;4986490;28;46080;-75
2022/05/13 03:32:08;;;;;;;;;0.00;0.00;;;;;;;;4994598;28;45278;-77
2022/05/13 03:34:33;;;;;;;;;0.00;0.00;;;;;;;;4986081;28;45467;-75
2022/05/13 03:36:59;;;;;;;;;0.00;0.00;;;;;;;;4987997;28;45550;-77
2022/05/13 03:39:24;;;;;;;;;1.00;1.00;;;;;;;;4994421;28;46248;-77
2022/05/13 03:41:50;;;;;;;;;1.00;1.00;;;;;;;;4994984;28;45409;-78
2022/05/13 03:44:15;;;;;;;;;1.00;1.00;;;;;;;;4980716;28;45809;-77
2022/05/13 03:46:40;;;;;;;;;1.00;0.00;;;;;;;;4983595;28;45314;-77
2022/05/13 03:49:06;;;;;;;;;1.00;1.00;;;;;;;;4983695;28;45949;-78
2022/05/13 03:51:32;;;;;;;;;0.00;0.00;;;;;;;;4983283;28;45515;-77
2022/05/13 03:53:58;;;;;;;;;1.00;0.00;;;;;;;;4979722;28;45373;-77
2022/05/13 03:56:23;;;;;;;;;1.75;1.00;;;;;;;;4993411;28;45485;-77
2022/05/13 03:58:48;;;;;;;;;2.67;0.00;;;;;;;;4994440;28;46256;-77
2022/05/13 04:01:14;;;;;;;;;2.00;1.00;;;;;;;;4993538;28;45510;-77
2022/05/13 04:03:39;;;;;;;;;1.00;1.00;;;;;;;;4994833;28;45518;-77
2022/05/13 04:08:59;;;;;;;;;0.00;0.00;;;;;;;;4984978;28;45799;-77
2022/05/13 04:11:25;;;;;;;;;0.33;0.00;;;;;;;;4992192;28;45398;-79
2022/05/13 04:16:35;;;;;;;;;0.00;0.00;;;;;;;;4986886;28;45534;-77
2022/05/13 04:19:01;;;;;;;;;0.00;0.00;;;;;;;;4994094;28;47303;-75
2022/05/13 04:21:30;;;;;;;;;1.00;1.00;;;;;;;;4997975;28;45531;-77
2022/05/13 04:23:56;;;;;;;;;1.33;1.00;;;;;;;;4979055;28;45519;-78
2022/05/13 04:26:22;;;;;;;;;0.00;0.00;;;;;;;;4994541;28;45223;-77
2022/05/13 04:28:48;;;;;;;;;1.00;1.00;;;;;;;;4996488;28;46196;-75
2022/05/13 04:31:15;;;;;;;;;0.00;0.00;;;;;;;;4991570;28;45347;-77
2022/05/13 04:33:41;;;;;;;;;0.00;0.00;;;;;;;;4986464;28;45570;-77
2022/05/13 04:36:07;;;;;;;;;0.00;0.00;;;;;;;;4990126;28;45602;-78
2022/05/13 04:38:32;;;;;;;;;0.33;0.00;;;;;;;;4997329;28;45554;-77
2022/05/13 04:42:49;;;;;;;;;0.00;0.00;;;;;;;;4986192;28;45314;-77
2022/05/13 04:43:43;;;;;;;;;0.00;0.00;;;;;;;;4991665;28;45425;-77
2022/05/13 04:46:08;;;;;;;;;0.33;0.33;;;;;;;;4997457;28;45570;-77
2022/05/13 04:48:33;;;;;;;;;0.00;0.00;;;;;;;;4996387;28;46190;-77
2022/05/13 04:50:58;;;;;;;;;4.00;1.00;;;;;;;;4982919;28;45276;-77
2022/05/13 04:53:25;;;;;;;;;0.33;0.33;;;;;;;;4986972;28;45367;-77
2022/05/13 04:55:52;;;;;;;;;0.00;0.00;;;;;;;;4988840;28;45311;-77
2022/05/13 04:58:18;;;;;;;;;2.00;2.00;;;;;;;;4990424;28;46368;-77
2022/05/13 05:00:44;;;;;;;;;2.00;2.00;;;;;;;;4985674;28;45450;-77
2022/05/13 05:03:09;;;;;;;;;0.00;0.00;;;;;;;;4997258;28;45332;-77
2022/05/13 05:05:34;;;;;;;;;1.00;1.00;;;;;;;;4997591;28;45466;-77
2022/05/13 05:08:00;;;;;;;;;1.00;1.00;;;;;;;;4988531;28;46451;-77
2022/05/13 05:10:25;;;;;;;;;0.00;0.00;;;;;;;;4997215;28;45594;-78
2022/05/13 05:12:54;;;;;;;;;0.33;0.33;;;;;;;;4993897;28;45353;-77
2022/05/13 05:15:19;;;;;;;;;1.00;1.00;;;;;;;;4985173;28;45489;-77
2022/05/13 05:17:45;;;;;;;;;2.00;1.00;;;;;;;;4996300;28;47127;-77
2022/05/13 05:20:10;;;;;;;;;0.00;0.00;;;;;;;;4997725;28;45464;-77
2022/05/13 05:22:35;;;;;;;;;0.67;0.67;;;;;;;;4991681;28;45475;-78
2022/05/13 05:25:01;;;;;;;;;0.67;0.67;;;;;;;;4996290;28;45475;-76
2022/05/13 05:27:26;;;;;;;;;1.00;1.00;;;;;;;;4992396;28;45351;-76
2022/05/13 05:29:52;;;;;;;;;1.00;1.00;;;;;;;;4996692;28;45305;-77
2022/05/13 05:32:17;;;;;;;;;1.00;1.00;;;;;;;;4982604;28;45417;-77
2022/05/13 05:34:42;;;;;;;;;1.00;1.00;;;;;;;;4995014;28;45430;-77
2022/05/13 05:37:07;;;;;;;;;0.33;0.33;;;;;;;;4992653;28;46158;-77
2022/05/13 05:39:33;;;;;;;;;1.00;1.00;;;;;;;;4996523;28;45489;-76
2022/05/13 05:41:58;;;;;;;;;0.00;0.00;;;;;;;;4996349;28;45499;-77
2022/05/13 05:44:23;;;;;;;;;0.00;0.00;;;;;;;;4982064;28;45260;-76
2022/05/13 05:46:48;;;;;;;;;2.00;0.00;;;;;;;;4984678;28;46231;-76
2022/05/13 05:49:14;;;;;;;;;0.67;0.67;;;;;;;;4986367;28;45344;-77
2022/05/13 05:51:39;;;;;;;;;0.33;0.33;;;;;;;;4985728;28;45462;-77
2022/05/13 05:59:32;;;;;;;;;0.67;0.67;;;;;;;;4992953;28;45332;-78
2022/05/13 06:01:57;;;;;;;;;0.00;0.00;;;;;;;;4999062;28;45420;-77
2022/05/13 06:04:22;;;;;;;;;0.50;0.50;;;;;;;;4996404;28;45540;-77
2022/05/13 06:06:48;;;;;;;;;0.00;0.00;;;;;;;;5001384;28;45292;-78
2022/05/13 06:09:13;;;;;;;;;1.00;1.00;;;;;;;;5002794;28;45474;-77
2022/05/13 06:11:38;;;;;;;;;2.00;1.00;;;;;;;;4980941;28;46286;-78
2022/05/13 06:14:03;;;;;;;;;0.00;0.00;;;;;;;;4996421;28;45354;-78
2022/05/13 06:16:29;;;;;;;;;1.00;1.00;;;;;;;;4987597;28;47118;-77
2022/05/13 06:18:54;;;;;;;;;0.67;0.67;;;;;;;;4990537;28;45372;-77
2022/05/13 06:21:19;;;;;;;;;0.00;0.00;;;;;;;;4993205;28;45594;-78
2022/05/13 06:23:45;;;;;;;;;2.00;2.00;;;;;;;;4995395;28;45496;-78
2022/05/13 06:26:10;;;;;;;;;0.00;0.00;;;;;;;;4999189;28;47657;-78
2022/05/13 06:28:36;;;;;;;;;2.67;1.67;;;;;;;;4995885;28;45341;-78
2022/05/13 06:31:01;;;;;;;;;2.00;2.00;;;;;;;;4994678;28;49484;-79
2022/05/13 06:33:27;;;;;;;;;2.25;1.25;;;;;;;;4995779;28;45733;-79
2022/05/13 06:35:52;;;;;;;;;5.25;3.75;;;;;;;;4995153;28;47217;-79
2022/05/13 06:38:22;;;;;;;;;5.00;2.75;;;;;;;;4995514;28;45219;-78
2022/05/13 06:40:48;;;;;;;;;3.00;3.00;;;;;;;;4994392;28;45476;-79
2022/05/13 06:43:14;;;;;;;;;4.00;4.00;;;;;;;;4991560;28;45421;-78
2022/05/13 06:45:39;;;;;;;;;6.50;4.50;;;;;;;;4992596;28;47013;-78
2022/05/13 06:48:05;;;;;;;;;2.25;2.25;;;;;;;;4995030;28;45400;-78
2022/05/13 06:50:30;;;;;;;;;4.25;3.75;;;;;;;;4981383;28;45406;-84
2022/05/13 06:52:55;;;;;;;;;3.75;3.75;;;;;;;;4996208;28;45503;-82
2022/05/13 06:55:20;;;;;;;;;4.00;3.25;;;;;;;;4994439;28;46431;-83
2022/05/13 06:57:46;;;;;;;;;3.50;3.25;;;;;;;;4989773;28;45460;-83
2022/05/13 07:00:11;;;;;;;;;2.50;2.50;;;;;;;;4996528;28;45472;-79
2022/05/13 07:02:37;;;;;;;;;2.50;2.00;;;;;;;;4981820;28;45464;-75
2022/05/13 07:05:03;;;;;;;;;3.00;3.00;;;;;;;;4983165;28;47053;-79
2022/05/13 07:07:28;;;;;;;;;3.75;2.75;;;;;;;;4984827;28;45544;-78
2022/05/13 07:09:53;;;;;;;;;3.00;3.00;;;;;;;;4984252;28;45443;-78
2022/05/13 07:12:19;;;;;;;;;5.00;3.50;;;;;;;;4982984;28;46087;-78
2022/05/13 07:14:44;;;;;;;;;2.75;2.75;;;;;;;;4993636;28;45210;-78
2022/05/13 07:17:09;;;;;;;;;4.50;3.25;;;;;;;;4978284;28;45391;-78
2022/05/13 07:19:34;;;;;;;;;4.50;4.50;;;;;;;;4989738;28;45270;-78
2022/05/13 07:22:00;;;;;;;;;6.00;4.75;;;;;;;;4994968;28;45416;-78
2022/05/13 07:24:26;;;;;;;;;4.00;4.00;;;;;;;;4993827;28;46968;-78
2022/05/13 07:26:51;;;;;;;;;4.50;4.50;;;;;;;;4994339;28;45479;-78
2022/05/13 07:29:16;;;;;;;;;2.75;2.75;;;;;;;;4995801;28;45426;-78
2022/05/13 07:31:41;;;;;;;;;5.25;4.00;;;;;;;;4985325;28;45329;-77
2022/05/13 07:34:07;;;;;;;;;3.50;3.50;;;;;;;;4984536;28;46332;-78
2022/05/13 07:36:33;;;;;;;;;3.00;3.00;;;;;;;;4994881;28;45298;-78
2022/05/13 07:41:42;;;;;;;;;4.25;3.00;;;;;;;;4993265;28;45254;-78
2022/05/13 07:44:08;;;;;;;;;3.00;3.00;;;;;;;;4980259;28;45490;-78
2022/05/13 07:46:33;;;;;;;;;3.00;3.00;;;;;;;;4993203;28;45659;-78
2022/05/13 07:48:58;;;;;;;;;2.00;2.00;;;;;;;;4998149;28;45230;-79
2022/05/13 07:51:26;;;;;;;;;3.00;3.00;;;;;;;;4998472;28;45380;-78
2022/05/13 07:53:51;;;;;;;;;4.00;2.33;;;;;;;;4986646;28;46081;-78
2022/05/13 07:56:16;;;;;;;;;2.00;2.00;;;;;;;;4984223;28;45464;-78
2022/05/13 07:58:41;;;;;;;;;3.25;2.75;;;;;;;;4987184;28;45380;-77
2022/05/13 08:01:07;;;;;;;;;3.00;3.00;;;;;;;;4991573;28;45353;-78
2022/05/13 08:03:47;;;;;;;;;5.00;3.75;;;;;;;;4987080;28;46104;-78
2022/05/13 08:06:19;;;;;;;;;4.25;3.00;;;;;;;;4998065;28;45480;-78
2022/05/13 08:08:46;;;;;;;;;2.00;2.00;;;;;;;;4989494;28;47402;-78
2022/05/13 08:11:14;;;;;;;;;4.50;3.50;;;;;;;;4984657;28;45353;-79
2022/05/13 08:13:39;;;;;;;;;5.25;2.00;;;;;;;;4986685;28;46525;-78
2022/05/13 08:16:06;;;;;;;;;2.25;2.25;;;;;;;;4986557;28;45493;-78
2022/05/13 08:18:31;;;;;;;;;2.75;2.75;;;;;;;;4988158;28;45383;-79
2022/05/13 08:20:56;;;;;;;;;4.75;2.50;;;;;;;;4998121;28;45599;-79
2022/05/13 08:23:22;;;;;;;;;4.00;4.00;;;;;;;;4983315;28;46826;-79
2022/05/13 08:25:48;;;;;;;;;4.75;3.50;;;;;;;;4994583;28;45500;-79
2022/05/13 08:28:13;;;;;;;;;3.00;3.00;;;;;;;;4991476;28;45493;-79
2022/05/13 08:30:39;;;;;;;;;6.00;4.00;;;;;;;;4987773;28;45375;-77
2022/05/13 08:33:10;;;;;;;;;2.00;2.00;;;;;;;;4997698;28;46628;-78
2022/05/13 08:35:40;;;;;;;;;2.00;2.00;;;;;;;;4987312;28;45361;-78
2022/05/13 08:38:06;;;;;;;;;4.75;3.00;;;;;;;;4989016;28;45463;-77
2022/05/13 08:40:43;;;;;;;;;2.00;1.50;;;;;;;;4988563;28;45369;-79
2022/05/13 08:43:16;;;;;;;;;2.50;2.50;;;;;;;;4991503;28;47251;-78
2022/05/13 08:45:44;;;;;;;;;2.33;2.33;;;;;;;;4997452;28;45484;-79
2022/05/13 08:48:13;;;;;;;;;3.75;3.00;;;;;;;;4997791;28;45733;-79
2022/05/13 08:50:42;;;;;;;;;1.75;1.75;;;;;;;;4982531;28;45647;-79
2022/05/13 08:53:19;;;;;;;;;2.00;2.00;;;;;;;;4984216;28;46648;-78
2022/05/13 08:55:48;;;;;;;;;1.00;1.00;;;;;;;;4985721;28;45278;-79
2022/05/13 08:58:43;;;;;;;;;3.33;3.00;;;;;;;;4992025;28;45345;-78
2022/05/13 09:01:11;;;;;;;;;3.75;2.00;;;;;;;;4991866;28;45503;-79
2022/05/13 09:03:40;;;;;;;;;6.25;2.25;;;;;;;;4994863;28;46747;-79
2022/05/13 09:06:07;;;;;;;;;3.75;1.50;;;;;;;;4991467;28;45538;-79
2022/05/13 09:08:33;;;;;;;;;3.00;3.00;;;;;;;;4994769;28;45443;-78
2022/05/13 09:11:16;;;;;;;;;3.00;3.00;;;;;;;;4984530;28;45361;-79
2022/05/13 09:13:47;;;;;;;;;2.33;2.33;;;;;;;;4993550;28;46268;-78
2022/05/13 09:16:14;;;;;;;;;3.00;2.33;;;;;;;;4994496;28;45436;-78
2022/05/13 09:18:48;;;;;;;;;3.00;3.00;;;;;;;;4993703;28;45382;-78
2022/05/13 09:21:19;;;;;;;;;2.50;2.50;;;;;;;;4997250;28;45617;-79
2022/05/13 09:23:44;;;;;;;;;6.25;2.25;;;;;;;;4984685;28;46351;-78
2022/05/13 09:26:14;;;;;;;;;2.25;2.00;;;;;;;;4983550;28;45560;-78
2022/05/13 09:29:00;;;;;;;;;2.00;2.00;;;;;;;;4993250;28;45424;-78
2022/05/13 09:31:27;;;;;;;;;4.00;3.25;;;;;;;;4989913;28;45438;-78
2022/05/13 09:33:52;;;;;;;;;4.25;4.25;;;;;;;;4987550;28;46603;-78
2022/05/13 09:36:23;;;;;;;;;4.00;4.00;;;;;;;;4992234;28;45582;-78
2022/05/13 09:38:50;;;;;;;;;4.25;3.50;;;;;;;;4995662;28;47950;-78
2022/05/13 09:41:28;;;;;;;;;4.00;4.00;;;;;;;;4979593;28;45391;-78
2022/05/13 09:43:54;;;;;;;;;3.50;3.50;;;;;;;;4991792;28;45440;-78
2022/05/13 09:46:20;;;;;;;;;4.50;4.50;;;;;;;;5000596;28;45358;-77
2022/05/13 09:48:57;;;;;;;;;4.50;4.50;;;;;;;;5003623;28;45645;-78
2022/05/13 09:51:38;;;;;;;;;5.75;5.00;;;;;;;;4984397;28;45486;-77
2022/05/13 09:54:21;;;;;;;;;4.75;4.75;;;;;;;;4986426;28;45519;-77
2022/05/13 09:56:47;;;;;;;;;5.00;4.25;;;;;;;;4987890;28;45393;-78
2022/05/13 09:59:19;;;;;;;;;7.00;5.00;;;;;;;;4997540;28;45705;-78
2022/05/13 10:01:45;;;;;;;;;7.00;7.00;;;;;;;;4996538;28;45247;-77
2022/05/13 10:04:22;;;;;;;;;7.00;6.00;;;;;;;;4993537;28;45301;-78
2022/05/13 10:06:48;;;;;;;;;6.00;6.00;;;;;;;;4992818;28;45440;-79
2022/05/13 10:15:12;;;;;;;;;9.00;9.00;;;;;;;;4981276;28;45963;-78
2022/05/13 10:17:44;;;;;;;;;8.00;8.00;;;;;;;;4980392;28;45303;-78
2022/05/13 10:20:10;;;;;;;;;7.50;7.50;;;;;;;;4981664;28;45560;-80
2022/05/13 10:22:40;;;;;;;;;7.25;7.25;;;;;;;;4997806;28;45488;-79
2022/05/13 10:25:10;;;;;;;;;9.00;8.00;;;;;;;;5002198;28;45444;-78
2022/05/13 10:27:37;;;;;;;;;7.00;5.75;;;;;;;;4994695;28;45380;-79
2022/05/13 10:30:07;;;;;;;;;7.75;5.00;;;;;;;;4995933;28;45862;-80
2022/05/13 10:32:42;;;;;;;;;6.00;6.00;;;;;;;;4980337;28;45432;-79
2022/05/13 10:35:09;;;;;;;;;9.75;7.00;;;;;;;;4983232;28;45508;-79
2022/05/13 10:37:51;;;;;;;;;7.75;6.50;;;;;;;;4990335;28;45349;-78
2022/05/13 10:40:18;;;;;;;;;8.00;6.75;;;;;;;;4989220;28;45515;-77
2022/05/13 10:42:46;;;;;;;;;8.00;7.75;;;;;;;;4984846;28;45324;-79
2022/05/13 10:45:15;;;;;;;;;7.50;6.00;;;;;;;;4987960;28;45579;-78
2022/05/13 10:47:43;;;;;;;;;5.75;5.75;;;;;;;;4986182;28;45771;-78
2022/05/13 10:50:14;;;;;;;;;9.75;9.75;;;;;;;;4982650;28;46022;-75
2022/05/13 10:53:00;;;;;;;;;5.00;5.00;;;;;;;;4985853;28;45444;-78
2022/05/13 10:55:44;;;;;;;;;6.50;6.50;;;;;;;;4988918;28;47174;-77
2022/05/13 10:58:09;;;;;;;;;6.25;6.25;;;;;;;;4992197;28;45407;-78
2022/05/13 11:00:53;;;;;;;;;6.50;6.50;;;;;;;;4994868;28;45420;-80
2022/05/13 11:03:36;;;;;;;;;5.25;5.25;;;;;;;;4982840;28;45595;-79
2022/05/13 11:06:20;;;;;;;;;8.00;6.25;;;;;;;;4980142;28;47289;-80
2022/05/13 11:08:48;;;;;;;;;6.25;5.00;;;;;;;;4979694;28;45377;-78
2022/05/13 11:11:34;;;;;;;;;6.00;6.00;;;;;;;;4982021;28;45397;-78
2022/05/13 11:14:02;;;;;;;;;6.00;6.00;;;;;;;;4982587;28;45364;-78
2022/05/13 11:16:34;;;;;;;;;6.00;6.00;;;;;;;;4997764;28;47128;-78
2022/05/13 11:18:59;;;;;;;;;5.00;5.00;;;;;;;;4990781;28;45390;-79
2022/05/13 11:21:45;;;;;;;;;7.00;5.00;;;;;;;;4983986;28;45330;-78
2022/05/13 11:27:19;;;;;;;;;7.75;6.50;;;;;;;;4981524;28;45374;-78
2022/05/13 11:29:44;;;;;;;;;7.00;7.00;;;;;;;;4995125;28;45431;-79
2022/05/13 11:32:12;;;;;;;;;9.75;8.00;;;;;;;;4996101;28;45440;-78
2022/05/13 11:34:45;;;;;;;;;7.00;7.00;;;;;;;;4985609;28;45214;-79
2022/05/13 11:37:15;;;;;;;;;6.00;6.00;;;;;;;;4983607;28;45306;-79
2022/05/13 11:39:49;;;;;;;;;5.75;5.75;;;;;;;;4983737;28;45314;-78
2022/05/13 11:42:33;;;;;;;;;6.75;4.75;;;;;;;;4981897;28;45517;-78
2022/05/13 11:45:26;;;;;;;;;7.50;6.00;;;;;;;;4979523;28;45523;-79
2022/05/13 11:47:56;;;;;;;;;7.00;5.75;;;;;;;;4994391;28;46526;-78
2022/05/13 11:50:21;;;;;;;;;4.25;4.25;;;;;;;;4999702;28;45450;-76
2022/05/13 11:52:48;;;;;;;;;5.75;5.75;;;;;;;;4995147;28;45325;-79
2022/05/13 11:55:17;;;;;;;;;8.00;8.00;;;;;;;;4993777;28;45619;-80
2022/05/13 11:57:47;;;;;;;;;7.00;6.50;;;;;;;;4994602;28;46316;-79
2022/05/13 12:00:34;;;;;;;;;8.50;6.00;;;;;;;;4994616;28;45529;-80
2022/05/13 12:03:13;;;;;;;;;7.25;7.00;;;;;;;;5001795;28;45458;-80
2022/05/13 12:05:38;;;;;;;;;6.00;5.00;;;;;;;;4998995;28;45509;-81
2022/05/13 12:08:15;;;;;;;;;5.75;4.25;;;;;;;;4994104;28;46200;-80
2022/05/13 12:10:52;;;;;;;;;5.00;5.00;;;;;;;;4984660;28;47315;-81
2022/05/13 12:13:36;;;;;;;;;7.00;7.00;;;;;;;;4983233;28;45440;-81
2022/05/13 12:16:21;;;;;;;;;6.25;6.25;;;;;;;;4987339;28;45499;-80
2022/05/13 12:19:16;;;;;;;;;7.75;6.25;;;;;;;;4967097;28;46527;-80
2022/05/13 12:21:48;;;;;;;;;8.25;6.75;;;;;;;;4963954;28;45743;-79
2022/05/13 12:24:13;;;;;;;;;5.50;5.50;;;;;;;;4972652;28;45541;-80
2022/05/13 12:26:54;;;;;;;;;5.25;4.25;;;;;;;;4972326;28;46287;-79
2022/05/13 12:29:41;;;;;;;;;4.50;4.50;;;;;;;;4958833;28;46265;-80
2022/05/13 12:32:16;;;;;;;;;6.50;6.50;;;;;;;;4970107;28;45378;-79
2022/05/13 12:37:36;;;;;;;;;7.00;7.00;;;;;;;;4967396;28;45376;-81
2022/05/13 12:40:02;;;;;;;;;5.25;5.00;;;;;;;;4964369;28;46094;-80
2022/05/13 12:42:46;;;;;;;;;7.00;5.25;;;;;;;;4971298;28;45509;-80
2022/05/13 12:45:18;;;;;;;;;6.00;5.00;;;;;;;;4962460;28;45522;-81
2022/05/13 12:47:55;;;;;;;;;7.25;5.50;;;;;;;;4970446;28;45679;-81
2022/05/13 12:50:27;;;;;;;;;6.50;5.25;;;;;;;;4986447;28;46218;-80
2022/05/13 12:52:52;;;;;;;;;5.75;5.50;;;;;;;;4969297;28;49646;-80
2022/05/13 12:55:20;;;;;;;;;5.50;5.50;;;;;;;;4974303;28;45413;-80
2022/05/13 12:58:14;;;;;;;;;4.00;4.00;;;;;;;;4991697;28;45448;-79
2022/05/13 13:00:42;;;;;;;;;7.00;5.25;;;;;;;;4994926;28;46348;-80
2022/05/13 13:03:09;;;;;;;;;5.25;5.00;;;;;;;;4987889;28;45449;-80
2022/05/13 13:05:35;;;;;;;;;8.75;6.00;;;;;;;;4997057;28;45490;-80
2022/05/13 13:08:14;;;;;;;;;4.75;4.75;;;;;;;;4994161;28;45480;-80
2022/05/13 13:10:58;;;;;;;;;6.00;5.00;;;;;;;;4999188;28;46996;-80
2022/05/13 13:13:39;;;;;;;;;5.75;5.75;;;;;;;;5000110;28;45439;-80
2022/05/13 13:16:07;;;;;;;;;5.75;5.00;;;;;;;;4996878;28;45563;-81
2022/05/13 13:18:35;;;;;;;;;5.00;4.00;;;;;;;;4996924;28;45446;-81
2022/05/13 13:21:01;;;;;;;;;5.25;5.25;;;;;;;;4996740;28;47056;-80
2022/05/13 13:23:34;;;;;;;;;8.50;4.75;;;;;;;;4982128;28;45448;-80
2022/05/13 13:26:00;;;;;;;;;5.00;4.00;;;;;;;;4997504;28;45261;-80
2022/05/13 13:28:34;;;;;;;;;5.00;5.00;;;;;;;;4990541;28;45527;-79
2022/05/13 13:31:04;;;;;;;;;4.50;4.50;;;;;;;;4996174;28;46078;-80
2022/05/13 13:33:31;;;;;;;;;3.50;3.50;;;;;;;;4996592;28;45659;-80
2022/05/13 13:36:07;;;;;;;;;4.50;4.50;;;;;;;;4994005;28;45329;-80
2022/05/13 13:38:33;;;;;;;;;5.00;4.25;;;;;;;;4992515;28;45427;-80
2022/05/13 13:40:58;;;;;;;;;6.75;5.00;;;;;;;;5008593;28;46094;-80
2022/05/13 13:43:28;;;;;;;;;5.00;5.00;;;;;;;;4992769;28;45484;-80
2022/05/13 13:45:56;;;;;;;;;4.75;4.25;;;;;;;;4986910;28;45405;-80
2022/05/13 13:48:27;;;;;;;;;6.00;3.00;;;;;;;;4995709;28;45280;-80
2022/05/13 13:50:53;;;;;;;;;4.25;4.25;;;;;;;;4996428;28;46122;-81
2022/05/13 13:53:24;;;;;;;;;2.50;2.50;;;;;;;;4986396;28;45506;-80
2022/05/13 13:55:50;;;;;;;;;4.50;4.50;;;;;;;;4996867;28;45368;-80
2022/05/13 13:58:16;;;;;;;;;3.00;3.00;;;;;;;;4996610;28;45386;-80
2022/05/13 14:00:43;;;;;;;;;3.00;3.00;;;;;;;;5000549;28;46339;-80
2022/05/13 14:03:18;;;;;;;;;4.50;3.75;;;;;;;;4993535;28;45996;-80
2022/05/13 14:05:55;;;;;;;;;3.75;3.75;;;;;;;;4996602;28;45535;-79
2022/05/13 14:08:21;;;;;;;;;4.75;3.75;;;;;;;;4996462;28;45503;-80
2022/05/13 14:10:50;;;;;;;;;5.00;3.50;;;;;;;;4984268;28;47245;-78
2022/05/13 14:13:17;;;;;;;;;4.00;4.00;;;;;;;;4984414;28;45308;-76
2022/05/13 14:15:44;;;;;;;;;4.00;3.00;;;;;;;;4985180;28;45473;-74
2022/05/13 14:18:12;;;;;;;;;3.00;3.00;;;;;;;;4985663;28;45383;-74
2022/05/13 14:20:38;;;;;;;;;3.00;3.00;;;;;;;;4996272;28;46184;-74
2022/05/13 14:23:16;;;;;;;;;2.25;2.25;;;;;;;;4983960;28;45408;-73
2022/05/13 14:25:44;;;;;;;;;2.25;2.25;;;;;;;;4990458;28;45459;-74
2022/05/13 14:28:14;;;;;;;;;3.75;3.00;;;;;;;;4990279;28;45550;-71
2022/05/13 14:30:41;;;;;;;;;3.50;2.00;;;;;;;;4984652;28;46393;-74
2022/05/13 14:33:07;;;;;;;;;2.75;2.75;;;;;;;;4981382;28;45407;-72
2022/05/13 14:35:33;;;;;;;;;3.75;3.00;;;;;;;;4994360;28;45545;-73
2022/05/13 14:38:04;;;;;;;;;3.75;3.75;;;;;;;;4994801;28;45606;-72
2022/05/13 14:40:32;;;;;;;;;3.00;3.00;;;;;;;;4995244;28;47261;-71
2022/05/13 14:43:01;;;;;;;;;3.00;3.00;;;;;;;;4991762;28;45440;-71
2022/05/13 14:45:26;;;;;;;;;4.25;4.00;;;;;;;;5003994;28;45486;-73
2022/05/13 14:47:52;;;;;;;;;2.50;2.50;;;;;;;;4995063;28;45554;-73
2022/05/13 14:50:19;;;;;;;;;2.67;2.67;;;;;;;;4996291;28;46209;-73
2022/05/13 14:52:50;;;;;;;;;2.50;2.50;;;;;;;;4985442;28;45491;-73
2022/05/13 14:55:33;;;;;;;;;2.00;2.00;;;;;;;;4984776;28;45405;-74
2022/05/13 14:57:59;;;;;;;;;2.00;2.00;;;;;;;;4979121;28;45235;-73
2022/05/13 15:00:30;;;;;;;;;3.25;3.00;;;;;;;;4983721;28;45452;-73
2022/05/13 15:03:04;;;;;;;;;3.00;2.50;;;;;;;;4995628;28;45330;-73
2022/05/13 15:05:35;;;;;;;;;2.75;2.75;;;;;;;;5001200;28;45411;-73
2022/05/13 15:08:00;;;;;;;;;2.75;2.00;;;;;;;;4983768;28;45554;-73
2022/05/13 15:10:28;;;;;;;;;3.00;3.00;;;;;;;;4983748;28;46502;-73
2022/05/13 15:12:54;;;;;;;;;2.00;2.00;;;;;;;;4991631;28;45459;-73
2022/05/13 15:15:20;;;;;;;;;3.75;3.75;;;;;;;;4982529;28;45241;-73
2022/05/13 15:17:51;;;;;;;;;2.75;2.75;;;;;;;;4995379;28;45399;-73